sensor_id;sensor_type;location;lat;lon;timestamp;pressure;altitude;pressure_sealevel;temperature;humidity
12987;BME280;58897;51.960;5.582;2023-09-08T00:02:03;101386.69;;;21.07;100.00
12987;BME280;58897;51.960;5.582;2023-09-08T00:04:31;101388.06;;;21.22;100.00
12987;BME280;58897;51.960;5.582;2023-09-08T00:06:59;101377.81;;;21.11;100.00
12987;BME280;58897;51.960;5.582;2023-09-08T00:09:26;101376.72;;;21.12;100.00
12987;BME280;58897;51.960;5.582;2023-09-08T00:11:53;101382.88;;;21.08;100.00
12987;BME280;58897;51.960;5.582;2023-09-08T00:14:22;101372.72;;;21.02;100.00
12987;BME280;58897;51.960;5.582;2023-09-08T00:16:49;101370.22;;;21.00;100.00
12987;BME280;58897;51.960;5.582;2023-09-08T00:19:15;101378.00;;;21.10;100.00
12987;BME280;58897;51.960;5.582;2023-09-08T00:21:42;101357.47;;;21.19;100.00
12987;BME280;58897;51.960;5.582;2023-09-08T00:24:09;101372.53;;;21.03;100.00
12987;BME280;58897;51.960;5.582;2023-09-08T00:26:37;101371.94;;;20.94;100.00
12987;BME280;58897;51.960;5.582;2023-09-08T00:29:04;101370.69;;;20.90;100.00
12987;BME280;58897;51.960;5.582;2023-09-08T00:31:31;101373.59;;;21.09;100.00
12987;BME280;58897;51.960;5.582;2023-09-08T00:33:57;101373.81;;;21.01;100.00
12987;BME280;58897;51.960;5.582;2023-09-08T00:36:24;101373.22;;;20.92;100.00
12987;BME280;58897;51.960;5.582;2023-09-08T00:38:50;101379.59;;;20.79;100.00
12987;BME280;58897;51.960;5.582;2023-09-08T00:41:17;101374.25;;;20.91;100.00
12987;BME280;58897;51.960;5.582;2023-09-08T00:43:44;101375.88;;;21.05;100.00
12987;BME280;58897;51.960;5.582;2023-09-08T00:46:10;101370.19;;;21.07;100.00
12987;BME280;58897;51.960;5.582;2023-09-08T00:48:37;101363.59;;;21.21;100.00
12987;BME280;58897;51.960;5.582;2023-09-08T00:51:04;101357.22;;;21.27;100.00
12987;BME280;58897;51.960;5.582;2023-09-08T00:53:34;101369.22;;;21.32;100.00
12987;BME280;58897;51.960;5.582;2023-09-08T00:56:00;101355.75;;;21.24;100.00
12987;BME280;58897;51.960;5.582;2023-09-08T00:58:29;101361.09;;;21.44;100.00
12987;BME280;58897;51.960;5.582;2023-09-08T01:00:55;101366.41;;;21.45;100.00
12987;BME280;58897;51.960;5.582;2023-09-08T01:03:25;101367.28;;;21.64;100.00
12987;BME280;58897;51.960;5.582;2023-09-08T01:05:52;101361.59;;;21.66;100.00
12987;BME280;58897;51.960;5.582;2023-09-08T01:08:19;101358.78;;;21.47;100.00
12987;BME280;58897;51.960;5.582;2023-09-08T01:10:46;101352.66;;;21.45;100.00
12987;BME280;58897;51.960;5.582;2023-09-08T01:13:13;101346.88;;;21.22;100.00
12987;BME280;58897;51.960;5.582;2023-09-08T01:15:39;101351.97;;;21.19;100.00
12987;BME280;58897;51.960;5.582;2023-09-08T01:18:06;101359.41;;;21.05;100.00
12987;BME280;58897;51.960;5.582;2023-09-08T01:25:46;101365.19;;;20.90;100.00
12987;BME280;58897;51.960;5.582;2023-09-08T01:28:17;101366.97;;;20.65;100.00
12987;BME280;58897;51.960;5.582;2023-09-08T01:30:45;101368.28;;;20.56;100.00
12987;BME280;58897;51.960;5.582;2023-09-08T01:33:13;101367.00;;;20.52;100.00
12987;BME280;58897;51.960;5.582;2023-09-08T01:35:40;101361.72;;;20.57;100.00
12987;BME280;58897;51.960;5.582;2023-09-08T01:38:07;101372.50;;;20.52;100.00
12987;BME280;58897;51.960;5.582;2023-09-08T01:40:33;101370.84;;;20.45;100.00
12987;BME280;58897;51.960;5.582;2023-09-08T01:43:00;101368.91;;;20.58;100.00
12987;BME280;58897;51.960;5.582;2023-09-08T01:45:27;101371.09;;;20.30;100.00
12987;BME280;58897;51.960;5.582;2023-09-08T01:47:53;101365.16;;;20.40;100.00
12987;BME280;58897;51.960;5.582;2023-09-08T01:50:20;101367.47;;;20.43;100.00
12987;BME280;58897;51.960;5.582;2023-09-08T01:52:48;101359.19;;;20.56;100.00
12987;BME280;58897;51.960;5.582;2023-09-08T01:55:15;101367.72;;;20.28;100.00
12987;BME280;58897;51.960;5.582;2023-09-08T01:57:44;101365.59;;;20.30;100.00
12987;BME280;58897;51.960;5.582;2023-09-08T02:00:13;101362.84;;;20.23;100.00
12987;BME280;58897;51.960;5.582;2023-09-08T02:02:39;101357.53;;;20.48;100.00
12987;BME280;58897;51.960;5.582;2023-09-08T02:05:07;101359.50;;;20.28;100.00
12987;BME280;58897;51.960;5.582;2023-09-08T02:07:34;101358.59;;;20.21;100.00
12987;BME280;58897;51.960;5.582;2023-09-08T02:10:01;101358.66;;;20.27;100.00
12987;BME280;58897;51.960;5.582;2023-09-08T02:12:27;101370.88;;;20.12;100.00
12987;BME280;58897;51.960;5.582;2023-09-08T02:14:54;101364.31;;;20.26;100.00
12987;BME280;58897;51.960;5.582;2023-09-08T02:17:20;101358.22;;;20.11;100.00
12987;BME280;58897;51.960;5.582;2023-09-08T02:19:47;101368.13;;;20.05;100.00
12987;BME280;58897;51.960;5.582;2023-09-08T02:22:13;101363.06;;;20.09;100.00
12987;BME280;58897;51.960;5.582;2023-09-08T02:24:40;101359.50;;;19.95;100.00
12987;BME280;58897;51.960;5.582;2023-09-08T02:27:07;101363.31;;;19.94;100.00
12987;BME280;58897;51.960;5.582;2023-09-08T02:29:33;101361.81;;;20.05;100.00
12987;BME280;58897;51.960;5.582;2023-09-08T02:31:59;101350.44;;;20.01;100.00
12987;BME280;58897;51.960;5.582;2023-09-08T02:34:26;101355.88;;;20.21;100.00
12987;BME280;58897;51.960;5.582;2023-09-08T02:36:52;101348.09;;;20.11;100.00
12987;BME280;58897;51.960;5.582;2023-09-08T02:39:19;101345.78;;;20.02;100.00
12987;BME280;58897;51.960;5.582;2023-09-08T02:41:46;101345.34;;;19.98;100.00
12987;BME280;58897;51.960;5.582;2023-09-08T02:44:12;101347.66;;;19.95;100.00
12987;BME280;58897;51.960;5.582;2023-09-08T02:46:39;101345.56;;;20.03;100.00
12987;BME280;58897;51.960;5.582;2023-09-08T02:49:06;101348.31;;;20.10;100.00
12987;BME280;58897;51.960;5.582;2023-09-08T02:51:32;101352.72;;;19.98;100.00
12987;BME280;58897;51.960;5.582;2023-09-08T02:53:59;101355.50;;;19.91;100.00
12987;BME280;58897;51.960;5.582;2023-09-08T02:56:25;101347.66;;;20.14;100.00
12987;BME280;58897;51.960;5.582;2023-09-08T02:58:52;101352.06;;;20.22;100.00
12987;BME280;58897;51.960;5.582;2023-09-08T03:01:18;101348.28;;;20.23;100.00
12987;BME280;58897;51.960;5.582;2023-09-08T03:03:48;101361.56;;;20.13;100.00
12987;BME280;58897;51.960;5.582;2023-09-08T03:06:18;101359.25;;;20.23;100.00
12987;BME280;58897;51.960;5.582;2023-09-08T03:08:46;101356.53;;;20.03;100.00
12987;BME280;58897;51.960;5.582;2023-09-08T03:11:13;101365.38;;;20.05;100.00
12987;BME280;58897;51.960;5.582;2023-09-08T03:13:39;101359.03;;;20.18;100.00
12987;BME280;58897;51.960;5.582;2023-09-08T03:16:07;101356.56;;;19.97;100.00
12987;BME280;58897;51.960;5.582;2023-09-08T03:18:34;101361.16;;;20.03;100.00
12987;BME280;58897;51.960;5.582;2023-09-08T03:21:04;101356.75;;;19.95;100.00
12987;BME280;58897;51.960;5.582;2023-09-08T03:23:40;101356.56;;;19.84;100.00
12987;BME280;58897;51.960;5.582;2023-09-08T03:26:08;101356.97;;;19.87;100.00
12987;BME280;58897;51.960;5.582;2023-09-08T03:28:36;101355.72;;;19.83;100.00
12987;BME280;58897;51.960;5.582;2023-09-08T03:31:03;101357.19;;;19.99;100.00
12987;BME280;58897;51.960;5.582;2023-09-08T03:33:30;101351.47;;;20.07;100.00
12987;BME280;58897;51.960;5.582;2023-09-08T03:35:57;101343.47;;;19.92;100.00
12987;BME280;58897;51.960;5.582;2023-09-08T03:38:24;101351.28;;;19.82;100.00
12987;BME280;58897;51.960;5.582;2023-09-08T03:40:50;101354.88;;;19.89;100.00
12987;BME280;58897;51.960;5.582;2023-09-08T03:43:17;101348.53;;;19.82;100.00
12987;BME280;58897;51.960;5.582;2023-09-08T03:45:43;101344.31;;;19.73;100.00
12987;BME280;58897;51.960;5.582;2023-09-08T03:48:10;101348.34;;;19.70;100.00
12987;BME280;58897;51.960;5.582;2023-09-08T03:50:37;101342.63;;;19.92;100.00
12987;BME280;58897;51.960;5.582;2023-09-08T03:53:04;101346.66;;;19.76;100.00
12987;BME280;58897;51.960;5.582;2023-09-08T03:55:30;101345.38;;;19.79;100.00
12987;BME280;58897;51.960;5.582;2023-09-08T03:57:57;101342.63;;;19.85;100.00
12987;BME280;58897;51.960;5.582;2023-09-08T04:00:23;101344.53;;;19.78;100.00
12987;BME280;58897;51.960;5.582;2023-09-08T04:02:50;101340.72;;;19.86;100.00
12987;BME280;58897;51.960;5.582;2023-09-08T04:05:17;101343.06;;;19.76;100.00
12987;BME280;58897;51.960;5.582;2023-09-08T04:07:46;101341.16;;;19.89;100.00
12987;BME280;58897;51.960;5.582;2023-09-08T04:10:13;101342.19;;;19.82;100.00
12987;BME280;58897;51.960;5.582;2023-09-08T04:12:40;101330.63;;;19.86;100.00
12987;BME280;58897;51.960;5.582;2023-09-08T04:15:08;101335.88;;;19.94;100.00
12987;BME280;58897;51.960;5.582;2023-09-08T04:17:36;101339.25;;;19.90;100.00
12987;BME280;58897;51.960;5.582;2023-09-08T04:20:04;101334.19;;;19.87;100.00
12987;BME280;58897;51.960;5.582;2023-09-08T04:22:32;101339.03;;;19.91;100.00
12987;BME280;58897;51.960;5.582;2023-09-08T04:24:59;101331.03;;;19.77;100.00
12987;BME280;58897;51.960;5.582;2023-09-08T04:27:25;101332.50;;;19.92;100.00
12987;BME280;58897;51.960;5.582;2023-09-08T04:29:52;101330.63;;;19.86;100.00
12987;BME280;58897;51.960;5.582;2023-09-08T04:32:19;101332.94;;;19.89;100.00
12987;BME280;58897;51.960;5.582;2023-09-08T04:34:45;101331.44;;;19.93;100.00
12987;BME280;58897;51.960;5.582;2023-09-08T04:37:12;101335.03;;;19.87;100.00
12987;BME280;58897;51.960;5.582;2023-09-08T04:39:38;101328.06;;;19.98;100.00
12987;BME280;58897;51.960;5.582;2023-09-08T04:42:05;101323.22;;;19.93;100.00
12987;BME280;58897;51.960;5.582;2023-09-08T04:44:31;101329.94;;;19.97;100.00
12987;BME280;58897;51.960;5.582;2023-09-08T04:46:58;101329.75;;;19.92;100.00
12987;BME280;58897;51.960;5.582;2023-09-08T04:49:25;101335.03;;;19.81;100.00
12987;BME280;58897;51.960;5.582;2023-09-08T04:51:51;101323.44;;;19.85;100.00
12987;BME280;58897;51.960;5.582;2023-09-08T04:54:18;101333.56;;;19.71;100.00
12987;BME280;58897;51.960;5.582;2023-09-08T04:56:46;101332.50;;;19.73;100.00
12987;BME280;58897;51.960;5.582;2023-09-08T04:59:12;101334.41;;;19.85;100.00
12987;BME280;58897;51.960;5.582;2023-09-08T05:01:39;101334.41;;;19.72;100.00
12987;BME280;58897;51.960;5.582;2023-09-08T05:04:06;101327.22;;;19.84;100.00
12987;BME280;58897;51.960;5.582;2023-09-08T05:06:33;101326.59;;;19.89;100.00
12987;BME280;58897;51.960;5.582;2023-09-08T05:08:59;101335.03;;;19.74;100.00
12987;BME280;58897;51.960;5.582;2023-09-08T05:11:26;101328.09;;;19.78;100.00
12987;BME280;58897;51.960;5.582;2023-09-08T05:13:53;101329.97;;;19.71;100.00
12987;BME280;58897;51.960;5.582;2023-09-08T05:16:20;101335.03;;;19.74;100.00
12987;BME280;58897;51.960;5.582;2023-09-08T05:19:03;101339.91;;;19.79;100.00
12987;BME280;58897;51.960;5.582;2023-09-08T05:21:31;101341.78;;;19.78;100.00
12987;BME280;58897;51.960;5.582;2023-09-08T05:23:57;101340.09;;;19.64;100.00
12987;BME280;58897;51.960;5.582;2023-09-08T05:26:24;101337.16;;;19.65;100.00
12987;BME280;58897;51.960;5.582;2023-09-08T05:28:51;101343.25;;;19.74;100.00
12987;BME280;58897;51.960;5.582;2023-09-08T05:31:17;101348.94;;;19.46;100.00
12987;BME280;58897;51.960;5.582;2023-09-08T05:33:44;101350.66;;;19.80;100.00
12987;BME280;58897;51.960;5.582;2023-09-08T05:36:10;101344.53;;;19.71;100.00
12987;BME280;58897;51.960;5.582;2023-09-08T05:38:40;101347.06;;;19.66;100.00
12987;BME280;58897;51.960;5.582;2023-09-08T05:41:07;101340.94;;;19.71;100.00
12987;BME280;58897;51.960;5.582;2023-09-08T05:43:34;101350.00;;;19.91;100.00
12987;BME280;58897;51.960;5.582;2023-09-08T05:46:01;101342.22;;;19.75;100.00
12987;BME280;58897;51.960;5.582;2023-09-08T05:48:28;101340.94;;;19.71;100.00
12987;BME280;58897;51.960;5.582;2023-09-08T05:50:54;101351.06;;;19.64;100.00
12987;BME280;58897;51.960;5.582;2023-09-08T05:53:21;101348.97;;;19.86;100.00
12987;BME280;58897;51.960;5.582;2023-09-08T05:55:47;101356.34;;;19.85;100.00
12987;BME280;58897;51.960;5.582;2023-09-08T05:58:14;101362.25;;;19.89;100.00
12987;BME280;58897;51.960;5.582;2023-09-08T06:00:40;101359.50;;;19.82;100.00
12987;BME280;58897;51.960;5.582;2023-09-08T06:03:07;101358.84;;;19.87;100.00
12987;BME280;58897;51.960;5.582;2023-09-08T06:05:34;101360.13;;;20.04;100.00
12987;BME280;58897;51.960;5.582;2023-09-08T06:08:01;101358.63;;;19.95;100.00
12987;BME280;58897;51.960;5.582;2023-09-08T06:10:32;101360.97;;;19.78;100.00
12987;BME280;58897;51.960;5.582;2023-09-08T06:12:59;101364.75;;;19.90;100.00
12987;BME280;58897;51.960;5.582;2023-09-08T06:15:25;101364.13;;;20.01;100.00
12987;BME280;58897;51.960;5.582;2023-09-08T06:17:52;101365.81;;;19.96;100.00
12987;BME280;58897;51.960;5.582;2023-09-08T06:20:19;101359.28;;;20.03;100.00
12987;BME280;58897;51.960;5.582;2023-09-08T06:22:45;101368.34;;;20.17;100.00
12987;BME280;58897;51.960;5.582;2023-09-08T06:25:12;101362.41;;;20.13;100.00
12987;BME280;58897;51.960;5.582;2023-09-08T06:27:39;101362.84;;;20.17;100.00
12987;BME280;58897;51.960;5.582;2023-09-08T06:30:06;101363.91;;;20.16;100.00
12987;BME280;58897;51.960;5.582;2023-09-08T06:32:33;101363.28;;;20.20;100.00
12987;BME280;58897;51.960;5.582;2023-09-08T06:34:59;101361.19;;;20.09;100.00
12987;BME280;58897;51.960;5.582;2023-09-08T06:37:26;101363.28;;;20.14;100.00
12987;BME280;58897;51.960;5.582;2023-09-08T06:39:54;101375.09;;;20.08;100.00
12987;BME280;58897;51.960;5.582;2023-09-08T06:42:21;101378.03;;;20.19;100.00
12987;BME280;58897;51.960;5.582;2023-09-08T06:44:47;101377.84;;;19.95;100.00
12987;BME280;58897;51.960;5.582;2023-09-08T06:47:14;101379.09;;;20.18;100.00
12987;BME280;58897;51.960;5.582;2023-09-08T06:49:40;101377.44;;;19.91;100.00
12987;BME280;58897;51.960;5.582;2023-09-08T06:52:07;101387.97;;;20.14;100.00
12987;BME280;58897;51.960;5.582;2023-09-08T06:54:34;101378.66;;;20.21;100.00
12987;BME280;58897;51.960;5.582;2023-09-08T06:57:00;101380.78;;;20.00;100.00
12987;BME280;58897;51.960;5.582;2023-09-08T06:59:27;101380.78;;;20.33;100.00
12987;BME280;58897;51.960;5.582;2023-09-08T07:01:53;101378.47;;;20.36;100.00
12987;BME280;58897;51.960;5.582;2023-09-08T07:04:21;101383.53;;;20.33;100.00
12987;BME280;58897;51.960;5.582;2023-09-08T07:06:47;101387.97;;;20.14;100.00
12987;BME280;58897;51.960;5.582;2023-09-08T07:09:16;101390.50;;;20.35;100.00
12987;BME280;58897;51.960;5.582;2023-09-08T07:11:42;101384.81;;;20.23;100.00
12987;BME280;58897;51.960;5.582;2023-09-08T07:14:09;101383.09;;;20.42;100.00
12987;BME280;58897;51.960;5.582;2023-09-08T07:16:36;101389.19;;;20.44;100.00
12987;BME280;58897;51.960;5.582;2023-09-08T07:19:03;101385.84;;;20.36;100.00
12987;BME280;58897;51.960;5.582;2023-09-08T07:21:30;101377.34;;;20.63;100.00
12987;BME280;58897;51.960;5.582;2023-09-08T07:23:56;101377.75;;;20.67;100.00
12987;BME280;58897;51.960;5.582;2023-09-08T07:26:24;101388.66;;;20.86;100.00
12987;BME280;58897;51.960;5.582;2023-09-08T07:28:51;101390.38;;;21.25;100.00
12987;BME280;58897;51.960;5.582;2023-09-08T07:31:17;101385.38;;;21.78;100.00
12987;BME280;58897;51.960;5.582;2023-09-08T07:33:44;101375.59;;;21.89;100.00
12987;BME280;58897;51.960;5.582;2023-09-08T07:36:10;101378.91;;;22.40;100.00
12987;BME280;58897;51.960;5.582;2023-09-08T07:38:38;101383.00;;;22.74;100.00
12987;BME280;58897;51.960;5.582;2023-09-08T07:41:04;101375.13;;;23.44;100.00
12987;BME280;58897;51.960;5.582;2023-09-08T07:43:31;101382.91;;;23.88;100.00
12987;BME280;58897;51.960;5.582;2023-09-08T07:45:57;101379.94;;;24.01;100.00
12987;BME280;58897;51.960;5.582;2023-09-08T07:48:24;101379.00;;;24.42;100.00
12987;BME280;58897;51.960;5.582;2023-09-08T07:50:51;101388.47;;;24.81;100.00
12987;BME280;58897;51.960;5.582;2023-09-08T07:53:17;101385.41;;;24.94;100.00
12987;BME280;58897;51.960;5.582;2023-09-08T07:55:44;101388.78;;;25.24;100.00
12987;BME280;58897;51.960;5.582;2023-09-08T07:58:10;101373.34;;;26.18;100.00
12987;BME280;58897;51.960;5.582;2023-09-08T08:00:37;101373.84;;;26.31;100.00
12987;BME280;58897;51.960;5.582;2023-09-08T08:03:04;101367.91;;;26.23;100.00
12987;BME280;58897;51.960;5.582;2023-09-08T08:05:30;101376.34;;;27.36;100.00
12987;BME280;58897;51.960;5.582;2023-09-08T08:07:57;101376.66;;;26.91;100.00
12987;BME280;58897;51.960;5.582;2023-09-08T08:10:23;101374.34;;;26.45;100.00
12987;BME280;58897;51.960;5.582;2023-09-08T08:12:50;101374.16;;;26.90;100.00
12987;BME280;58897;51.960;5.582;2023-09-08T08:15:19;101370.38;;;27.23;100.00
12987;BME280;58897;51.960;5.582;2023-09-08T08:17:47;101368.78;;;27.85;100.00
12987;BME280;58897;51.960;5.582;2023-09-08T08:20:14;101368.34;;;27.98;100.00
12987;BME280;58897;51.960;5.582;2023-09-08T08:22:45;101366.84;;;28.12;100.00
12987;BME280;58897;51.960;5.582;2023-09-08T08:25:12;101356.81;;;27.80;100.00
12987;BME280;58897;51.960;5.582;2023-09-08T08:27:40;101368.06;;;28.78;100.00
12987;BME280;58897;51.960;5.582;2023-09-08T08:30:07;101366.06;;;28.22;100.00
12987;BME280;58897;51.960;5.582;2023-09-08T08:32:34;101369.88;;;29.15;100.00
12987;BME280;58897;51.960;5.582;2023-09-08T08:35:01;101366.94;;;29.42;100.00
12987;BME280;58897;51.960;5.582;2023-09-08T08:37:28;101373.09;;;29.49;100.00
12987;BME280;58897;51.960;5.582;2023-09-08T08:39:54;101370.84;;;29.35;100.00
12987;BME280;58897;51.960;5.582;2023-09-08T08:42:21;101367.31;;;29.95;100.00
12987;BME280;58897;51.960;5.582;2023-09-08T08:44:49;101372.88;;;30.01;99.86
12987;BME280;58897;51.960;5.582;2023-09-08T08:47:17;101362.84;;;29.94;100.00
12987;BME280;58897;51.960;5.582;2023-09-08T08:49:45;101376.44;;;29.51;100.00
12987;BME280;58897;51.960;5.582;2023-09-08T08:52:14;101379.63;;;29.12;100.00
12987;BME280;58897;51.960;5.582;2023-09-08T08:54:41;101374.25;;;30.03;100.00
12987;BME280;58897;51.960;5.582;2023-09-08T08:57:11;101370.34;;;29.89;100.00
12987;BME280;58897;51.960;5.582;2023-09-08T08:59:37;101373.13;;;30.14;100.00
12987;BME280;58897;51.960;5.582;2023-09-08T09:02:05;101380.06;;;29.56;100.00
12987;BME280;58897;51.960;5.582;2023-09-08T09:04:32;101368.66;;;30.38;100.00
12987;BME280;58897;51.960;5.582;2023-09-08T09:06:59;101373.03;;;30.70;100.00
12987;BME280;58897;51.960;5.582;2023-09-08T09:09:26;101371.75;;;29.91;97.92
12987;BME280;58897;51.960;5.582;2023-09-08T09:11:53;101364.66;;;30.75;99.06
12987;BME280;58897;51.960;5.582;2023-09-08T09:14:20;101364.72;;;31.24;96.55
12987;BME280;58897;51.960;5.582;2023-09-08T09:16:47;101365.91;;;32.00;94.85
12987;BME280;58897;51.960;5.582;2023-09-08T09:19:19;101366.94;;;32.09;89.20
12987;BME280;58897;51.960;5.582;2023-09-08T09:21:55;101365.78;;;30.79;93.47
12987;BME280;58897;51.960;5.582;2023-09-08T09:24:48;101365.34;;;31.15;94.09
12987;BME280;58897;51.960;5.582;2023-09-08T09:27:15;101368.25;;;31.49;93.72
12987;BME280;58897;51.960;5.582;2023-09-08T09:29:50;101366.06;;;31.36;92.53
12987;BME280;58897;51.960;5.582;2023-09-08T09:32:23;101364.09;;;31.81;90.14
12987;BME280;58897;51.960;5.582;2023-09-08T09:34:51;101364.88;;;31.47;91.15
12987;BME280;58897;51.960;5.582;2023-09-08T09:37:21;101365.69;;;32.20;89.41
12987;BME280;58897;51.960;5.582;2023-09-08T09:39:49;101367.59;;;32.82;89.81
12987;BME280;58897;51.960;5.582;2023-09-08T09:42:17;101369.47;;;31.28;90.07
12987;BME280;58897;51.960;5.582;2023-09-08T09:44:44;101360.66;;;32.51;87.50
12987;BME280;58897;51.960;5.582;2023-09-08T09:47:13;101360.88;;;31.97;90.90
12987;BME280;58897;51.960;5.582;2023-09-08T09:49:44;101367.47;;;32.69;87.03
12987;BME280;58897;51.960;5.582;2023-09-08T09:52:20;101360.16;;;32.44;89.12
12987;BME280;58897;51.960;5.582;2023-09-08T09:54:48;101356.03;;;32.36;90.68
12987;BME280;58897;51.960;5.582;2023-09-08T09:57:20;101360.94;;;32.97;85.83
12987;BME280;58897;51.960;5.582;2023-09-08T09:59:48;101361.84;;;33.35;83.03
12987;BME280;58897;51.960;5.582;2023-09-08T10:02:18;101360.41;;;33.56;81.62
12987;BME280;58897;51.960;5.582;2023-09-08T10:04:49;101361.63;;;33.50;80.64
12987;BME280;58897;51.960;5.582;2023-09-08T10:07:17;101368.91;;;33.09;83.52
12987;BME280;58897;51.960;5.582;2023-09-08T10:09:44;101362.75;;;33.49;84.41
12987;BME280;58897;51.960;5.582;2023-09-08T10:12:14;101369.03;;;33.41;83.93
12987;BME280;58897;51.960;5.582;2023-09-08T10:14:45;101364.72;;;32.87;86.80
12987;BME280;58897;51.960;5.582;2023-09-08T10:17:19;101355.09;;;33.36;83.48
12987;BME280;58897;51.960;5.582;2023-09-08T10:19:52;101358.91;;;33.45;86.33
12987;BME280;58897;51.960;5.582;2023-09-08T10:22:23;101358.38;;;33.62;82.02
12987;BME280;58897;51.960;5.582;2023-09-08T10:24:54;101356.47;;;33.76;79.16
12987;BME280;58897;51.960;5.582;2023-09-08T10:27:22;101345.03;;;34.37;78.02
12987;BME280;58897;51.960;5.582;2023-09-08T10:29:50;101345.19;;;34.13;78.69
12987;BME280;58897;51.960;5.582;2023-09-08T10:32:20;101351.13;;;33.61;83.43
12987;BME280;58897;51.960;5.582;2023-09-08T10:34:47;101347.81;;;34.23;78.23
12987;BME280;58897;51.960;5.582;2023-09-08T10:37:22;101350.09;;;34.21;80.96
12987;BME280;58897;51.960;5.582;2023-09-08T10:39:51;101337.91;;;34.85;76.40
12987;BME280;58897;51.960;5.582;2023-09-08T10:50:01;101342.78;;;34.06;76.54
12987;BME280;58897;51.960;5.582;2023-09-08T10:52:27;101337.59;;;34.59;81.60
12987;BME280;58897;51.960;5.582;2023-09-08T10:54:55;101332.97;;;35.04;74.04
12987;BME280;58897;51.960;5.582;2023-09-08T10:57:24;101337.25;;;34.34;75.68
12987;BME280;58897;51.960;5.582;2023-09-08T10:59:55;101337.38;;;34.83;74.29
12987;BME280;58897;51.960;5.582;2023-09-08T11:02:54;101332.44;;;34.07;78.24
12987;BME280;58897;51.960;5.582;2023-09-08T11:05:21;101339.31;;;33.45;85.11
12987;BME280;58897;51.960;5.582;2023-09-08T11:07:48;101336.16;;;34.16;81.50
12987;BME280;58897;51.960;5.582;2023-09-08T11:10:19;101334.28;;;34.11;79.33
12987;BME280;58897;51.960;5.582;2023-09-08T11:12:46;101333.56;;;32.94;86.73
12987;BME280;58897;51.960;5.582;2023-09-08T11:15:15;101341.72;;;33.51;82.12
12987;BME280;58897;51.960;5.582;2023-09-08T11:17:41;101335.13;;;34.12;82.36
12987;BME280;58897;51.960;5.582;2023-09-08T11:20:09;101337.78;;;34.90;80.41
12987;BME280;58897;51.960;5.582;2023-09-08T11:22:38;101329.81;;;34.56;78.18
12987;BME280;58897;51.960;5.582;2023-09-08T11:25:09;101338.41;;;34.46;80.06
12987;BME280;58897;51.960;5.582;2023-09-08T11:27:37;101336.00;;;34.53;78.92
12987;BME280;58897;51.960;5.582;2023-09-08T11:30:07;101333.75;;;34.83;81.64
12987;BME280;58897;51.960;5.582;2023-09-08T11:32:35;101336.34;;;35.06;77.18
12987;BME280;58897;51.960;5.582;2023-09-08T11:35:07;101334.66;;;33.54;85.43
12987;BME280;58897;51.960;5.582;2023-09-08T11:37:39;101336.59;;;34.09;85.08
12987;BME280;58897;51.960;5.582;2023-09-08T11:40:08;101334.81;;;33.81;85.11
12987;BME280;58897;51.960;5.582;2023-09-08T11:42:40;101324.25;;;33.92;87.53
12987;BME280;58897;51.960;5.582;2023-09-08T11:45:11;101331.63;;;34.20;82.97
12987;BME280;58897;51.960;5.582;2023-09-08T11:47:43;101333.06;;;34.31;79.42
12987;BME280;58897;51.960;5.582;2023-09-08T11:50:10;101327.50;;;34.86;81.97
12987;BME280;58897;51.960;5.582;2023-09-08T11:52:48;101331.63;;;33.69;83.83
12987;BME280;58897;51.960;5.582;2023-09-08T11:55:15;101331.31;;;34.03;80.93
12987;BME280;58897;51.960;5.582;2023-09-08T11:57:45;101328.91;;;34.15;81.25
12987;BME280;58897;51.960;5.582;2023-09-08T12:00:13;101326.22;;;33.91;81.98
12987;BME280;58897;51.960;5.582;2023-09-08T12:02:44;101335.81;;;34.04;81.69
12987;BME280;58897;51.960;5.582;2023-09-08T12:05:13;101325.13;;;34.79;81.60
12987;BME280;58897;51.960;5.582;2023-09-08T12:07:40;101324.00;;;34.66;82.14
12987;BME280;58897;51.960;5.582;2023-09-08T12:10:10;101335.94;;;33.43;83.75
12987;BME280;58897;51.960;5.582;2023-09-08T12:12:49;101335.25;;;33.51;86.93
12987;BME280;58897;51.960;5.582;2023-09-08T12:15:31;101318.53;;;34.43;85.00
12987;BME280;58897;51.960;5.582;2023-09-08T12:18:02;101320.44;;;34.01;84.76
12987;BME280;58897;51.960;5.582;2023-09-08T12:20:30;101320.38;;;34.06;80.90
12987;BME280;58897;51.960;5.582;2023-09-08T12:23:04;101320.06;;;33.76;83.83
12987;BME280;58897;51.960;5.582;2023-09-08T12:25:31;101335.06;;;33.47;83.53
12987;BME280;58897;51.960;5.582;2023-09-08T12:28:04;101330.91;;;33.45;86.44
12987;BME280;58897;51.960;5.582;2023-09-08T12:30:31;101332.03;;;33.63;82.96
12987;BME280;58897;51.960;5.582;2023-09-08T12:33:01;101327.72;;;33.33;84.17
12987;BME280;58897;51.960;5.582;2023-09-08T12:35:28;101327.94;;;33.74;82.88
12987;BME280;58897;51.960;5.582;2023-09-08T12:38:05;101328.19;;;33.21;87.36
12987;BME280;58897;51.960;5.582;2023-09-08T12:40:37;101321.22;;;33.56;86.73
12987;BME280;58897;51.960;5.582;2023-09-08T12:43:04;101327.56;;;33.62;84.04
12987;BME280;58897;51.960;5.582;2023-09-08T12:45:51;101314.00;;;33.69;82.30
12987;BME280;58897;51.960;5.582;2023-09-08T12:48:17;101311.69;;;33.89;85.26
12987;BME280;58897;51.960;5.582;2023-09-08T12:50:44;101307.88;;;33.99;82.48
12987;BME280;58897;51.960;5.582;2023-09-08T12:53:10;101306.53;;;33.96;92.84
12987;BME280;58897;51.960;5.582;2023-09-08T12:55:37;101310.09;;;34.15;85.97
12987;BME280;58897;51.960;5.582;2023-09-08T12:58:04;101322.09;;;32.95;85.63
12987;BME280;58897;51.960;5.582;2023-09-08T13:00:30;101324.44;;;33.07;89.33